Si está buscando la página de la aerolínea real de Iberia, ésta no es.

Aeropuerto [GOBD]

INFORMACIÓN DEL AEROPUERTO
GOBD  
Aeropuerto grande  
Blaise Diagne International Airport  
Africa  
Senegal  
SN-DK  
Dakar  
GOOO  
14.670833  
-17.072777  
290  
GOBD  
DSS  
 
Enlace  
Enlace  
 
 
ADDS - METARS form results
(1502 UTC 21 January 2020)
Data provider http://bcaws.aviationweather.gov/metar/data/
 
METAR text: GOBD 211500Z 06005KT 8000 NSC 32/M00 Q1010 NOSIG
Conditions at: GOBD (DAKAR/DIAGNE , SN) observed 1500 UTC 21 January 2020
Temperature: 32.0°C (90°F)
Dewpoint: 0.0°C (32°F) [RH = 13%]
Pressure (altimeter): 29.82 inches Hg (1010.0 mb)
Winds: from the ENE (60 degrees) at 6 MPH (5 knots; 2.6 m/s)
Visibility: 5 miles ( 8 km)
Ceiling: at least 12,000 feet AGL
Clouds: sky clear below 12,000 feet AGL
Weather: no significant weather observed at this time

METAR text: GOBD 211430Z 04006KT 010V080 8000 NSC 32/00 Q1010 NOSIG
Conditions at: GOBD (DAKAR/DIAGNE , SN) observed 1430 UTC 21 January 2020
Temperature: 32.0°C (90°F)
Dewpoint: 0.0°C (32°F) [RH = 13%]
Pressure (altimeter): 29.82 inches Hg (1010.0 mb)
Winds: from the NE (40 degrees) at 7 MPH (6 knots; 3.1 m/s)
Visibility: 5 miles ( 8 km)
Ceiling: at least 12,000 feet AGL
Clouds: sky clear below 12,000 feet AGL
Weather: no significant weather observed at this time

Forecast for: GOBD (DAKAR/DIAGNE , SN)
Text: TAF GOBD 211130Z 2112/2218 03010KT CAVOK
Forecast period: 1200 UTC 21 January 2020 to 1800 UTC 22 January 2020
Forecast type: FROM: standard forecast or significant change
Winds: from the NNE (30 degrees) at 12 MPH (10 knots; 5.1 m/s)
Visibility: 6 or more miles 10+ km)
Ceiling: unknown
Clouds: missing
Weather: NSW  (no significant weather)

 

FRECUENCIAS DEL AEROPUERTO

RADIO AYUDAS DEL AEROPUERTO